Time;durP1;ratioP1;P1;durP2;ratioP2;P2;SDS_P1;SDS_P2;PMS_P1;PMS_P2;Temp;Humidity;BMP_temperature;BMP_pressure;BME280_temperature;BME280_humidity;BME280_pressure;Samples;Min_cycle;Max_cycle;Signal;HPM_P1;HPM_P2
2021/03/15 00:00:28;;;;;;;4.77;3.57;;;3.60;99.90;;;;;;5080795;28;20443;-67
2021/03/15 00:02:56;;;;;;;4.83;4.17;;;3.50;99.90;;;;;;5082579;28;20421;-67
2021/03/15 00:05:24;;;;;;;3.90;3.40;;;3.50;99.90;;;;;;5082518;28;20441;-67
2021/03/15 00:07:52;;;;;;;6.43;2.90;;;3.60;99.90;;;;;;5101655;28;20483;-67
2021/03/15 00:10:21;;;;;;;7.53;3.83;;;3.60;99.90;;;;;;5100266;28;20786;-69
2021/03/15 00:12:50;;;;;;;3.80;3.40;;;3.60;99.90;;;;;;5117591;28;20926;-67
2021/03/15 00:15:24;;;;;;;5.00;3.33;;;3.70;99.90;;;;;;5083720;28;20424;-69
2021/03/15 00:17:52;;;;;;;3.30;2.60;;;3.70;99.90;;;;;;5117864;28;20467;-68
2021/03/15 00:20:21;;;;;;;5.37;4.40;;;3.70;99.90;;;;;;5100372;28;20454;-70
2021/03/15 00:22:50;;;;;;;5.27;3.80;;;3.60;99.90;;;;;;5121087;28;20424;-67
2021/03/15 00:25:19;;;;;;;3.83;2.90;;;3.70;99.90;;;;;;5120430;28;20503;-67
2021/03/15 00:27:48;;;;;;;4.20;3.60;;;3.60;99.90;;;;;;5117586;28;20482;-68
2021/03/15 00:30:18;;;;;;;5.40;3.10;;;3.70;99.90;;;;;;5118946;28;20455;-68
2021/03/15 00:32:48;;;;;;;3.53;3.20;;;3.70;99.90;;;;;;5118652;28;20493;-68
2021/03/15 00:35:17;;;;;;;3.60;2.80;;;3.80;99.90;;;;;;5117747;28;20439;-68
2021/03/15 00:37:46;;;;;;;4.50;2.77;;;3.70;99.90;;;;;;5117883;28;20964;-68
2021/03/15 00:40:16;;;;;;;5.10;3.23;;;3.70;99.90;;;;;;5119829;28;20434;-69
2021/03/15 00:42:46;;;;;;;4.23;3.10;;;3.70;99.90;;;;;;5121197;28;20439;-67
2021/03/15 00:45:15;;;;;;;5.57;3.33;;;3.70;99.90;;;;;;5120878;28;20933;-68
2021/03/15 00:47:44;;;;;;;5.37;3.20;;;3.80;99.90;;;;;;5119949;28;20551;-68
2021/03/15 00:50:17;;;;;;;4.90;3.53;;;3.80;99.90;;;;;;5118933;28;20763;-68
2021/03/15 00:52:47;;;;;;;3.30;3.00;;;3.80;99.90;;;;;;5117347;28;20822;-67
2021/03/15 00:55:18;;;;;;;52.50;3.70;;;3.80;99.90;;;;;;5099480;28;20439;-68
2021/03/15 00:57:45;;;;;;;5.50;3.10;;;3.80;99.90;;;;;;5116796;28;20815;-67
2021/03/15 01:00:19;;;;;;;3.40;3.10;;;3.70;99.90;;;;;;5098850;28;20446;-67
2021/03/15 01:06:04;;;;;;;3.30;2.90;;;3.70;99.90;;;;;;5117302;28;20456;-67
2021/03/15 01:08:41;;;;;;;3.73;2.67;;;3.80;99.90;;;;;;5116888;28;20521;-67
2021/03/15 01:11:17;;;;;;;3.70;3.10;;;3.80;99.90;;;;;;5117124;28;20759;-68
2021/03/15 01:13:52;;;;;;;4.90;3.27;;;3.80;99.90;;;;;;5086325;28;20526;-67
2021/03/15 01:16:25;;;;;;;3.87;3.30;;;3.80;99.90;;;;;;5084995;28;20762;-68
2021/03/15 01:18:55;;;;;;;4.80;3.83;;;3.80;99.90;;;;;;5101579;28;20427;-67
2021/03/15 01:21:23;;;;;;;5.03;3.30;;;3.80;99.90;;;;;;5101332;28;20449;-67
2021/03/15 01:23:50;;;;;;;6.63;4.23;;;3.80;99.90;;;;;;5100987;28;20439;-68
2021/03/15 01:26:18;;;;;;;6.83;4.70;;;3.80;99.90;;;;;;5117095;28;20463;-68
2021/03/15 01:28:47;;;;;;;6.17;4.03;;;3.80;99.90;;;;;;5117092;28;20438;-68
2021/03/15 01:31:14;;;;;;;7.00;4.60;;;3.80;99.90;;;;;;5117095;28;20461;-67
2021/03/15 01:33:44;;;;;;;6.30;4.40;;;3.80;99.90;;;;;;5116974;28;20863;-68
2021/03/15 01:36:13;;;;;;;4.93;4.37;;;3.70;99.90;;;;;;5116919;28;20423;-68
2021/03/15 01:38:41;;;;;;;5.77;5.07;;;3.80;99.90;;;;;;5098518;28;20435;-68
2021/03/15 01:41:08;;;;;;;6.90;5.77;;;3.80;99.90;;;;;;5116881;28;20432;-70
2021/03/15 01:43:36;;;;;;;5.50;4.83;;;3.70;99.90;;;;;;5118527;28;20438;-68
2021/03/15 01:46:05;;;;;;;7.13;5.70;;;3.70;99.90;;;;;;5117947;28;20816;-66
2021/03/15 01:48:32;;;;;;;14.30;5.23;;;3.70;99.90;;;;;;5067754;28;20444;-66
2021/03/15 01:51:00;;;;;;;6.60;5.87;;;3.60;99.90;;;;;;5102071;28;20410;-69
2021/03/15 01:53:29;;;;;;;6.63;5.80;;;3.60;99.90;;;;;;5119989;28;20435;-68
2021/03/15 01:55:56;;;;;;;7.67;5.90;;;3.60;99.90;;;;;;5120482;28;20489;-69
2021/03/15 01:58:24;;;;;;;8.20;6.03;;;3.50;99.90;;;;;;5102854;28;20572;-68
2021/03/15 02:00:52;;;;;;;9.20;6.10;;;3.30;99.90;;;;;;5122692;28;20541;-68
2021/03/15 02:03:24;;;;;;;6.30;5.20;;;3.30;99.90;;;;;;5124253;28;20858;-67
2021/03/15 02:05:52;;;;;;;9.40;6.97;;;3.30;99.90;;;;;;5124587;28;20436;-70
2021/03/15 02:08:22;;;;;;;9.83;6.43;;;3.30;99.90;;;;;;5123977;28;20536;-69
2021/03/15 02:10:51;;;;;;;9.43;6.60;;;3.20;99.90;;;;;;5106704;28;20964;-67
2021/03/15 02:13:39;;;;;;;7.80;6.67;;;3.30;99.90;;;;;;5124602;28;20493;-68
2021/03/15 02:16:14;;;;;;;6.80;6.10;;;3.30;99.90;;;;;;5123659;28;20428;-69
2021/03/15 02:19:04;;;;;;;9.70;7.27;;;3.20;99.90;;;;;;5103854;28;20913;-69
2021/03/15 02:22:17;;;;;;;9.10;6.83;;;3.20;99.90;;;;;;5120962;28;20436;-67
2021/03/15 02:25:24;;;;;;;8.57;7.03;;;3.10;99.90;;;;;;5120933;28;20430;-71
2021/03/15 02:28:37;;;;;;;9.87;6.67;;;3.10;99.90;;;;;;4993175;28;20468;-66
2021/03/15 02:31:34;;;;;;;8.40;6.57;;;3.20;99.90;;;;;;5076223;28;20790;-67
2021/03/15 02:34:47;;;;;;;8.83;7.23;;;3.20;99.90;;;;;;5120942;28;20427;-70
2021/03/15 02:37:21;;;;;;;10.30;7.10;;;3.20;99.90;;;;;;5065697;28;20956;-68
2021/03/15 02:39:53;;;;;;;11.53;7.20;;;3.30;99.90;;;;;;5116566;28;20446;-68
2021/03/15 02:42:22;;;;;;;14.10;7.90;;;3.30;99.90;;;;;;5120505;28;20485;-70
2021/03/15 02:44:53;;;;;;;7.80;6.73;;;3.30;99.90;;;;;;5102916;28;20427;-68
2021/03/15 02:47:23;;;;;;;10.50;7.50;;;3.30;99.90;;;;;;5101580;28;21047;-68
2021/03/15 02:49:56;;;;;;;8.60;7.30;;;3.30;99.90;;;;;;5120790;28;21018;-68
2021/03/15 02:52:27;;;;;;;10.83;7.33;;;3.20;99.90;;;;;;5119943;28;20439;-68
2021/03/15 02:54:56;;;;;;;10.37;7.70;;;3.30;99.90;;;;;;5123376;28;20435;-67
2021/03/15 02:57:24;;;;;;;11.90;7.20;;;3.20;99.90;;;;;;5104809;28;20443;-68
2021/03/15 02:59:54;;;;;;;13.57;6.93;;;3.30;99.90;;;;;;5121995;28;20432;-68
2021/03/15 03:02:23;;;;;;;7.73;6.70;;;3.30;99.90;;;;;;5125837;28;20446;-68
2021/03/15 03:04:52;;;;;;;8.60;6.90;;;3.30;99.90;;;;;;5118009;28;20431;-66
2021/03/15 03:07:26;;;;;;;7.13;6.43;;;3.40;99.90;;;;;;5107652;28;20551;-68
2021/03/15 03:09:57;;;;;;;8.10;6.63;;;3.40;99.90;;;;;;5122824;28;20432;-67
2021/03/15 03:12:27;;;;;;;9.00;6.40;;;3.40;99.90;;;;;;5121696;28;20420;-68
2021/03/15 03:14:58;;;;;;;7.50;6.30;;;3.50;99.90;;;;;;5102687;28;20439;-70
2021/03/15 03:17:30;;;;;;;9.20;7.20;;;3.50;99.90;;;;;;5105283;28;20440;-68
2021/03/15 03:19:58;;;;;;;8.77;7.00;;;3.60;99.90;;;;;;5101480;28;20534;-67
2021/03/15 03:22:27;;;;;;;9.07;6.97;;;3.70;99.90;;;;;;5122517;28;20513;-70
2021/03/15 03:24:57;;;;;;;7.20;5.30;;;3.70;99.90;;;;;;5087379;28;20785;-67
2021/03/15 03:27:25;;;;;;;7.43;6.70;;;3.80;99.90;;;;;;5122839;28;20509;-67
2021/03/15 03:29:53;;;;;;;7.10;5.90;;;3.80;99.90;;;;;;5122745;28;20486;-70
2021/03/15 03:32:23;;;;;;;7.80;6.20;;;3.90;99.90;;;;;;5103600;28;20440;-67
2021/03/15 03:34:52;;;;;;;8.30;5.43;;;3.90;99.90;;;;;;5121421;28;20439;-68
2021/03/15 03:37:20;;;;;;;11.87;6.50;;;3.90;99.90;;;;;;5103787;28;20430;-67
2021/03/15 03:39:50;;;;;;;7.80;5.90;;;3.90;99.90;;;;;;5121666;28;20432;-66
2021/03/15 03:42:19;;;;;;;7.43;6.07;;;3.90;99.90;;;;;;5119966;28;20428;-70
2021/03/15 03:44:47;;;;;;;12.80;5.67;;;3.90;99.90;;;;;;5118965;28;20986;-71
2021/03/15 03:47:16;;;;;;;7.70;5.87;;;3.90;99.90;;;;;;5119035;28;20552;-67
2021/03/15 03:49:44;;;;;;;11.67;6.20;;;3.90;99.90;;;;;;5104831;28;20485;-67
2021/03/15 03:52:13;;;;;;;9.83;6.30;;;3.80;99.90;;;;;;5128455;28;20461;-66
2021/03/15 03:54:47;;;;;;;9.00;6.37;;;3.90;99.90;;;;;;5133333;28;20428;-68
2021/03/15 03:57:24;;;;;;;6.80;5.47;;;3.90;99.90;;;;;;5133918;28;20431;-67
2021/03/15 03:59:53;;;;;;;6.93;6.23;;;3.90;99.90;;;;;;5135145;28;20435;-67
2021/03/15 04:02:24;;;;;;;7.30;6.47;;;4.00;99.90;;;;;;5116540;28;20461;-68
2021/03/15 04:04:59;;;;;;;7.90;6.03;;;4.00;99.90;;;;;;5135106;28;20455;-66
2021/03/15 04:07:29;;;;;;;7.37;6.00;;;3.90;99.90;;;;;;5116960;28;20950;-68
2021/03/15 04:10:04;;;;;;;8.60;5.57;;;3.90;99.90;;;;;;5113941;28;20425;-70
2021/03/15 04:12:34;;;;;;;7.80;5.93;;;3.90;99.90;;;;;;5105925;28;20459;-68
2021/03/15 04:15:04;;;;;;;9.03;6.80;;;3.90;99.90;;;;;;5096300;28;20451;-67
2021/03/15 04:17:36;;;;;;;8.73;6.47;;;3.90;99.90;;;;;;5114494;28;20460;-68
2021/03/15 04:20:06;;;;;;;10.10;6.40;;;3.90;99.90;;;;;;5115032;28;20458;-67
2021/03/15 04:22:39;;;;;;;7.90;6.67;;;4.00;99.90;;;;;;5074065;28;20437;-68
2021/03/15 04:25:08;;;;;;;7.20;6.50;;;4.00;99.90;;;;;;5114411;28;20447;-71
2021/03/15 04:30:33;;;;;;;7.63;6.10;;;3.90;99.90;;;;;;5113214;28;20437;-67
2021/03/15 04:33:03;;;;;;;8.50;7.23;;;3.80;99.90;;;;;;5107727;28;20463;-69
2021/03/15 04:35:33;;;;;;;9.63;6.60;;;4.00;99.90;;;;;;5114171;28;20413;-70
2021/03/15 04:38:04;;;;;;;7.07;6.07;;;4.00;99.90;;;;;;5114405;28;20433;-68
2021/03/15 04:40:33;;;;;;;7.23;6.37;;;4.10;99.90;;;;;;5114729;28;20433;-67
2021/03/15 04:43:27;;;;;;;9.50;5.90;;;4.00;99.90;;;;;;5114826;28;20420;-71
2021/03/15 04:45:55;;;;;;;7.40;6.00;;;4.00;99.90;;;;;;5094017;28;20455;-68
2021/03/15 04:48:25;;;;;;;9.23;6.47;;;4.00;99.90;;;;;;5110093;28;20766;-68
2021/03/15 04:50:57;;;;;;;7.40;6.70;;;4.00;99.90;;;;;;5109539;28;20425;-67
2021/03/15 04:53:27;;;;;;;10.43;6.90;;;4.00;99.90;;;;;;5085313;28;20458;-68
2021/03/15 04:55:58;;;;;;;7.57;6.00;;;3.90;99.90;;;;;;5082129;28;20443;-67
2021/03/15 04:58:29;;;;;;;11.40;7.00;;;3.90;99.90;;;;;;5078861;28;20523;-67
2021/03/15 05:01:00;;;;;;;7.17;6.13;;;3.90;99.90;;;;;;5094673;28;20448;-68
2021/03/15 05:03:30;;;;;;;8.37;5.90;;;3.90;99.90;;;;;;5098993;28;20421;-69
2021/03/15 05:05:59;;;;;;;6.70;5.40;;;3.90;99.90;;;;;;5099768;28;20481;-67
2021/03/15 05:08:40;;;;;;;11.50;5.90;;;3.90;99.90;;;;;;5107879;28;20483;-68
2021/03/15 05:11:11;;;;;;;9.10;6.27;;;3.90;99.90;;;;;;5120422;28;20438;-68
2021/03/15 05:13:41;;;;;;;9.73;5.87;;;3.80;99.90;;;;;;5101378;28;20432;-67
2021/03/15 05:16:11;;;;;;;7.43;6.27;;;3.70;99.90;;;;;;5120702;28;20440;-67
2021/03/15 05:18:40;;;;;;;7.43;5.73;;;3.70;99.90;;;;;;5120200;28;20447;-67
2021/03/15 05:21:10;;;;;;;7.90;6.20;;;3.80;99.90;;;;;;5121307;28;20570;-68
2021/03/15 05:23:40;;;;;;;9.10;6.03;;;4.00;99.90;;;;;;5101460;28;20439;-70
2021/03/15 05:26:08;;;;;;;7.50;5.77;;;4.00;99.90;;;;;;5119812;28;20431;-67
2021/03/15 05:28:37;;;;;;;7.43;5.40;;;4.00;99.90;;;;;;5121240;28;20530;-68
2021/03/15 05:31:07;;;;;;;7.37;5.10;;;4.00;99.90;;;;;;5119981;28;20430;-67
2021/03/15 05:33:39;;;;;;;8.23;5.57;;;3.90;99.90;;;;;;5121132;28;20510;-67
2021/03/15 05:36:09;;;;;;;8.53;6.30;;;3.90;99.90;;;;;;5100584;28;20481;-67
2021/03/15 05:38:41;;;;;;;13.27;6.57;;;3.80;99.90;;;;;;5016123;28;20443;-70
2021/03/15 05:41:09;;;;;;;8.03;6.20;;;3.80;99.90;;;;;;5082389;28;20475;-70
2021/03/15 05:43:50;;;;;;;6.70;5.70;;;3.90;99.90;;;;;;5099338;28;20435;-71
2021/03/15 05:46:44;;;;;;;8.10;6.90;;;3.90;99.90;;;;;;5100750;28;20454;-70
2021/03/15 05:49:38;;;;;;;9.47;5.43;;;3.90;99.90;;;;;;5119272;28;20427;-69
2021/03/15 05:52:13;;;;;;;10.00;6.00;;;4.00;99.90;;;;;;5119603;28;20919;-70
2021/03/15 05:55:09;;;;;;;8.00;5.93;;;4.00;99.90;;;;;;5118980;28;20459;-70
2021/03/15 05:58:31;;;;;;;6.23;5.63;;;4.10;99.90;;;;;;5101586;28;20451;-70
2021/03/15 06:01:45;;;;;;;8.87;5.60;;;4.00;99.90;;;;;;5116806;28;20439;-70
2021/03/15 06:04:39;;;;;;;6.30;5.10;;;4.20;99.90;;;;;;5053460;28;20885;-70
2021/03/15 06:07:09;;;;;;;6.33;5.40;;;4.20;99.90;;;;;;5098647;28;20482;-70
2021/03/15 06:09:42;;;;;;;6.70;5.00;;;4.20;99.90;;;;;;5098971;28;20546;-70
2021/03/15 06:12:19;;;;;;;6.70;6.00;;;4.30;99.90;;;;;;5098873;28;20428;-71
2021/03/15 06:14:54;;;;;;;21.77;12.87;;;4.50;99.90;;;;;;5115703;28;20433;-71
2021/03/15 06:17:24;;;;;;;8.13;6.13;;;4.40;99.90;;;;;;5115833;28;20436;-70
2021/03/15 06:19:52;;;;;;;14.80;5.93;;;4.30;99.90;;;;;;5115980;28;20443;-71
2021/03/15 06:22:21;;;;;;;6.10;5.00;;;4.50;99.90;;;;;;5116129;28;20468;-71
2021/03/15 06:24:50;;;;;;;10.00;6.10;;;4.60;99.90;;;;;;5116557;28;20432;-71
2021/03/15 06:27:18;;;;;;;5.53;4.70;;;4.60;99.90;;;;;;5116615;28;20524;-70
2021/03/15 06:29:46;;;;;;;10.10;5.50;;;4.60;99.90;;;;;;5099758;28;20477;-71
2021/03/15 06:32:15;;;;;;;6.63;5.37;;;4.70;99.90;;;;;;5098406;28;20435;-71
2021/03/15 06:34:45;;;;;;;6.50;4.93;;;4.70;99.90;;;;;;5097653;28;20471;-73
2021/03/15 06:37:16;;;;;;;6.20;4.53;;;4.70;99.90;;;;;;5116404;28;20430;-70
2021/03/15 06:39:46;;;;;;;7.13;4.87;;;4.70;99.90;;;;;;5097213;28;20918;-71
2021/03/15 06:42:17;;;;;;;6.03;4.53;;;4.60;99.90;;;;;;5116684;28;20467;-70
2021/03/15 06:44:45;;;;;;;7.93;4.80;;;4.40;99.90;;;;;;5116393;28;20519;-70
2021/03/15 06:47:15;;;;;;;7.27;4.90;;;4.60;99.90;;;;;;5117845;28;20530;-71
2021/03/15 06:49:43;;;;;;;9.67;5.80;;;4.60;99.90;;;;;;5120011;28;20432;-69
2021/03/15 06:52:12;;;;;;;8.10;4.70;;;4.60;99.90;;;;;;5120974;28;20443;-70
2021/03/15 06:54:40;;;;;;;6.30;5.70;;;4.70;99.90;;;;;;5122314;28;20511;-70
2021/03/15 06:57:18;;;;;;;6.17;4.43;;;4.80;99.90;;;;;;5120297;28;20436;-69
2021/03/15 06:59:51;;;;;;;7.73;4.47;;;4.60;99.90;;;;;;5120070;28;20432;-69
2021/03/15 07:02:27;;;;;;;8.33;5.27;;;4.70;99.90;;;;;;5120649;28;20756;-69
2021/03/15 07:04:56;;;;;;;5.53;4.67;;;4.80;99.90;;;;;;5120369;28;20432;-73
2021/03/15 07:07:27;;;;;;;8.40;4.20;;;4.80;99.90;;;;;;5120901;28;20938;-71
2021/03/15 07:09:56;;;;;;;11.93;3.87;;;4.80;99.90;;;;;;5122012;28;20472;-70
2021/03/15 07:12:28;;;;;;;10.10;5.40;;;4.80;99.90;;;;;;5120823;28;20502;-74
2021/03/15 07:15:06;;;;;;;5.13;4.60;;;4.60;99.90;;;;;;5104319;28;20808;-71
2021/03/15 07:17:34;;;;;;;6.90;4.63;;;4.80;99.90;;;;;;5086223;28;20790;-70
2021/03/15 07:20:03;;;;;;;10.80;5.07;;;4.90;99.90;;;;;;5103689;28;20463;-73
2021/03/15 07:22:32;;;;;;;8.43;5.00;;;4.80;99.90;;;;;;5120847;28;20458;-70
2021/03/15 07:25:13;;;;;;;9.30;5.27;;;4.90;99.90;;;;;;5132663;28;20424;-71
2021/03/15 07:27:43;;;;;;;5.27;4.17;;;4.60;99.90;;;;;;5129120;28;20475;-70
2021/03/15 07:30:36;;;;;;;6.80;4.20;;;4.60;99.90;;;;;;5120967;28;20460;-71
2021/03/15 07:33:14;;;;;;;8.00;4.87;;;4.70;99.90;;;;;;5099244;28;20419;-70
2021/03/15 07:35:42;;;;;;;6.87;4.30;;;4.70;99.90;;;;;;5118809;28;20436;-71
2021/03/15 07:38:11;;;;;;;4.20;3.77;;;4.70;99.90;;;;;;5101240;28;20430;-71
2021/03/15 07:40:44;;;;;;;5.83;4.30;;;4.80;99.90;;;;;;5120964;28;20444;-70
2021/03/15 07:43:14;;;;;;;5.33;4.10;;;4.70;99.90;;;;;;5102630;28;20523;-69
2021/03/15 07:45:46;;;;;;;6.93;3.70;;;4.60;99.90;;;;;;5120986;28;20428;-70
2021/03/15 07:48:40;;;;;;;5.37;4.30;;;4.90;99.90;;;;;;5122062;28;20474;-71
2021/03/15 07:51:09;;;;;;;8.07;3.83;;;5.00;99.90;;;;;;5104027;28;20933;-71
2021/03/15 07:53:40;;;;;;;5.17;4.00;;;4.90;99.90;;;;;;5102731;28;20450;-70
2021/03/15 07:56:10;;;;;;;5.00;4.40;;;4.90;99.90;;;;;;5118853;28;20434;-70
2021/03/15 07:58:39;;;;;;;7.50;4.50;;;5.00;99.90;;;;;;5100186;28;20518;-70
2021/03/15 08:01:09;;;;;;;5.70;4.20;;;5.00;99.90;;;;;;5118352;28;20440;-70
2021/03/15 08:03:39;;;;;;;5.53;3.60;;;4.70;99.90;;;;;;5099226;28;20475;-71
2021/03/15 08:06:11;;;;;;;6.27;4.13;;;4.70;99.90;;;;;;5099934;28;20474;-70
2021/03/15 08:08:43;;;;;;;4.03;3.63;;;4.80;99.90;;;;;;5100931;28;20586;-69
2021/03/15 08:11:13;;;;;;;6.30;4.23;;;4.80;99.90;;;;;;5121121;28;20428;-69
2021/03/15 08:13:44;;;;;;;4.13;3.73;;;4.80;99.90;;;;;;5120437;28;20436;-71
2021/03/15 08:16:21;;;;;;;3.93;3.50;;;4.50;99.90;;;;;;5104373;28;20773;-71
2021/03/15 08:18:50;;;;;;;4.53;3.27;;;4.30;99.90;;;;;;5121808;28;20935;-70
2021/03/15 08:21:22;;;;;;;4.37;3.17;;;4.50;99.90;;;;;;5103169;28;20438;-70
2021/03/15 08:23:51;;;;;;;3.50;2.60;;;4.60;99.90;;;;;;5099495;28;20897;-70
2021/03/15 08:26:20;;;;;;;2.77;2.50;;;4.50;99.90;;;;;;5101644;28;20443;-69
2021/03/15 08:28:50;;;;;;;4.43;2.80;;;4.50;99.90;;;;;;5083843;28;20468;-71
2021/03/15 08:31:21;;;;;;;4.00;3.17;;;4.50;99.90;;;;;;5118761;28;20432;-70
2021/03/15 08:33:51;;;;;;;4.03;3.33;;;4.60;99.90;;;;;;5118452;28;20498;-70
2021/03/15 08:36:19;;;;;;;2.63;2.40;;;4.40;99.90;;;;;;5118588;28;20818;-70
2021/03/15 08:38:48;;;;;;;4.93;2.10;;;4.20;99.90;;;;;;5118871;28;20416;-70
2021/03/15 08:41:22;;;;;;;3.73;2.53;;;4.40;99.90;;;;;;5101001;28;20535;-70
2021/03/15 08:43:51;;;;;;;3.20;2.67;;;4.50;99.90;;;;;;5100235;28;20430;-70
2021/03/15 08:46:33;;;;;;;7.90;2.20;;;4.20;99.90;;;;;;5101113;28;20502;-71
2021/03/15 08:49:04;;;;;;;2.60;2.40;;;4.20;99.90;;;;;;5100179;28;20493;-71
2021/03/15 08:51:49;;;;;;;2.47;1.93;;;4.20;99.90;;;;;;5066428;28;20598;-72
2021/03/15 08:54:37;;;;;;;4.53;2.60;;;4.10;99.90;;;;;;5117240;28;20940;-71
2021/03/15 08:57:07;;;;;;;3.37;2.30;;;4.30;99.90;;;;;;5083525;28;20430;-69
2021/03/15 08:59:35;;;;;;;3.97;2.57;;;4.40;99.90;;;;;;5083521;28;20439;-69
2021/03/15 09:02:05;;;;;;;5.40;2.63;;;4.20;99.90;;;;;;5082699;28;20464;-70
2021/03/15 09:04:44;;;;;;;3.60;2.37;;;4.30;99.90;;;;;;5082321;28;20435;-70
2021/03/15 09:07:42;;;;;;;4.40;3.27;;;4.30;99.90;;;;;;5098501;28;20446;-70
2021/03/15 09:10:45;;;;;;;3.03;2.63;;;4.10;99.90;;;;;;5080254;28;20531;-69
2021/03/15 09:13:32;;;;;;;3.37;2.13;;;4.20;99.90;;;;;;5098036;28;20446;-69
2021/03/15 09:16:05;;;;;;;4.80;3.00;;;4.30;99.90;;;;;;5105602;28;20988;-69
2021/03/15 09:18:50;;;;;;;2.43;2.23;;;4.40;99.90;;;;;;5100903;28;20424;-70
2021/03/15 09:21:50;;;;;;;3.30;3.07;;;4.40;99.90;;;;;;5100929;28;20832;-70
2021/03/15 09:24:42;;;;;;;3.70;2.93;;;4.20;99.90;;;;;;5100706;28;20440;-72
2021/03/15 09:27:11;;;;;;;3.13;2.83;;;4.30;99.90;;;;;;5118942;28;20527;-69
2021/03/15 09:29:40;;;;;;;4.37;2.90;;;4.60;99.90;;;;;;5100922;28;20431;-69
2021/03/15 09:32:09;;;;;;;6.30;3.50;;;4.70;99.90;;;;;;5116764;28;20970;-68
2021/03/15 09:34:39;;;;;;;4.57;2.80;;;4.80;99.90;;;;;;5099972;28;20402;-70
2021/03/15 09:37:08;;;;;;;3.10;2.80;;;4.60;99.90;;;;;;5118440;28;20929;-69
2021/03/15 09:39:37;;;;;;;4.60;3.90;;;4.70;99.90;;;;;;5118704;28;20481;-70
2021/03/15 09:42:08;;;;;;;3.33;3.03;;;4.90;99.90;;;;;;5118853;28;20463;-72
2021/03/15 09:44:42;;;;;;;5.27;3.40;;;4.90;99.90;;;;;;5100589;28;20964;-70
2021/03/15 09:47:13;;;;;;;3.97;3.03;;;4.80;99.90;;;;;;5099461;28;20467;-69
2021/03/15 09:49:47;;;;;;;4.73;4.23;;;4.70;99.90;;;;;;5100042;28;20420;-69
2021/03/15 09:52:25;;;;;;;5.17;3.00;;;4.70;99.90;;;;;;5100899;28;20452;-69
2021/03/15 09:55:09;;;;;;;3.30;2.97;;;4.90;99.90;;;;;;5101237;28;20431;-69
2021/03/15 09:57:37;;;;;;;4.37;3.67;;;5.10;99.90;;;;;;5100197;28;20553;-69
2021/03/15 10:00:25;;;;;;;3.90;2.93;;;5.00;99.90;;;;;;5080460;28;20460;-70
2021/03/15 10:03:19;;;;;;;5.20;4.20;;;4.90;99.90;;;;;;5083801;28;20444;-71
2021/03/15 10:06:08;;;;;;;5.37;3.60;;;5.00;99.90;;;;;;5117360;28;20440;-69
2021/03/15 10:08:56;;;;;;;6.03;3.67;;;4.60;99.90;;;;;;5101548;28;20476;-70
2021/03/15 10:11:43;;;;;;;3.53;3.17;;;4.60;99.90;;;;;;5119144;28;20442;-69
2021/03/15 10:14:59;;;;;;;3.47;2.60;;;4.80;99.90;;;;;;5119489;28;20448;-70
2021/03/15 10:17:52;;;;;;;2.63;2.00;;;4.90;99.90;;;;;;5107825;28;20542;-69
2021/03/15 10:20:53;;;;;;;3.07;2.70;;;4.70;99.90;;;;;;5101168;28;20439;-71
2021/03/15 10:23:31;;;;;;;3.00;2.77;;;5.00;99.90;;;;;;5104350;28;20950;-69
2021/03/15 10:26:04;;;;;;;2.67;2.20;;;5.10;99.90;;;;;;5122851;28;20781;-69
2021/03/15 10:31:42;;;;;;;2.50;2.27;;;5.00;99.90;;;;;;5101758;28;20528;-70
2021/03/15 10:34:12;;;;;;;3.50;2.13;;;5.10;99.90;;;;;;5122710;28;20445;-69
2021/03/15 10:37:16;;;;;;;3.13;2.60;;;5.10;99.90;;;;;;5103202;28;20509;-69
2021/03/15 10:39:55;;;;;;;2.03;1.87;;;5.30;99.90;;;;;;5103226;28;20431;-70
2021/03/15 10:42:29;;;;;;;2.00;1.90;;;5.30;99.90;;;;;;5086964;28;20443;-72
2021/03/15 10:45:00;;;;;;;2.87;1.77;;;5.40;99.90;;;;;;5089205;28;20509;-70
2021/03/15 10:47:33;;;;;;;2.70;2.40;;;5.40;99.90;;;;;;5106525;28;20562;-70
2021/03/15 10:50:41;;;;;;;1.90;1.80;;;5.50;99.90;;;;;;5105368;28;20953;-72
2021/03/15 10:53:22;;;;;;;2.37;1.67;;;5.60;99.90;;;;;;5106196;28;20427;-71
2021/03/15 10:55:52;;;;;;;1.63;1.43;;;5.60;99.90;;;;;;5103726;28;20399;-70
2021/03/15 10:58:38;;;;;;;1.67;1.40;;;5.50;99.90;;;;;;5095677;28;20424;-69
2021/03/15 11:01:21;;;;;;;1.60;1.43;;;5.60;99.90;;;;;;5091698;28;20804;-70
2021/03/15 11:03:51;;;;;;;1.17;1.07;;;5.60;99.90;;;;;;5064859;28;20789;-70
2021/03/15 11:06:31;;;;;;;1.40;1.30;;;5.60;99.90;;;;;;5082086;28;20440;-70
2021/03/15 11:09:08;;;;;;;5.73;1.20;;;5.50;99.90;;;;;;5099545;28;20562;-72
2021/03/15 11:11:37;;;;;;;1.30;1.20;;;5.50;99.90;;;;;;5093451;28;20399;-69
2021/03/15 11:14:13;;;;;;;1.07;0.90;;;5.50;99.90;;;;;;5066356;28;20429;-70
2021/03/15 11:17:10;;;;;;;1.87;1.57;;;5.60;99.90;;;;;;5081618;28;20492;-70
2021/03/15 11:19:53;;;;;;;1.20;1.10;;;5.70;99.90;;;;;;5093853;28;20439;-70
2021/03/15 11:22:51;;;;;;;2.03;1.63;;;5.80;99.90;;;;;;5081137;28;20433;-69
2021/03/15 11:25:23;;;;;;;1.53;1.43;;;6.00;99.90;;;;;;5065742;28;20418;-70
2021/03/15 11:28:19;;;;;;;2.30;1.60;;;6.10;99.90;;;;;;5066252;28;20443;-70
2021/03/15 11:31:00;;;;;;;2.17;1.60;;;5.90;99.90;;;;;;5077803;28;20942;-70
2021/03/15 11:33:34;;;;;;;1.53;1.43;;;5.70;99.90;;;;;;5101728;28;20427;-69
2021/03/15 11:36:15;;;;;;;1.77;1.67;;;5.80;99.90;;;;;;5083540;28;20399;-72
2021/03/15 11:39:07;;;;;;;1.80;1.70;;;6.00;99.90;;;;;;5101165;28;20491;-69
2021/03/15 11:41:53;;;;;;;1.90;1.80;;;6.10;99.90;;;;;;5082519;28;20448;-70
2021/03/15 11:44:23;;;;;;;1.53;1.43;;;7.00;99.90;;;;;;5082211;28;20404;-70
2021/03/15 11:46:51;;;;;;;1.87;1.60;;;7.70;99.90;;;;;;5085138;28;20480;-69
2021/03/15 11:49:29;;;;;;;2.10;1.67;;;7.80;99.90;;;;;;5106207;28;20913;-69
2021/03/15 11:52:10;;;;;;;1.83;1.73;;;7.70;99.90;;;;;;5102986;28;20988;-70
2021/03/15 11:55:07;;;;;;;1.63;1.53;;;7.50;99.90;;;;;;5102389;28;20417;-72
2021/03/15 11:57:37;;;;;;;3.07;1.90;;;7.60;99.90;;;;;;5084802;28;20451;-70
2021/03/15 12:00:07;;;;;;;3.13;2.10;;;8.10;99.90;;;;;;5119353;28;20396;-71
2021/03/15 12:02:45;;;;;;;1.90;1.73;;;7.80;99.90;;;;;;5118570;28;20505;-70
2021/03/15 12:05:33;;;;;;;1.90;1.70;;;7.90;99.90;;;;;;5118239;28;20453;-70
2021/03/15 12:08:09;;;;;;;1.60;1.50;;;7.80;99.90;;;;;;5082391;28;20615;-69
2021/03/15 12:10:40;;;;;;;1.60;1.50;;;7.60;99.90;;;;;;5100275;28;20472;-70
2021/03/15 12:13:12;;;;;;;1.70;1.50;;;7.20;99.90;;;;;;5083640;28;20411;-70
2021/03/15 12:15:41;;;;;;;2.07;1.70;;;7.30;99.90;;;;;;5096533;28;20441;-72
2021/03/15 12:18:12;;;;;;;1.90;1.70;;;7.40;99.90;;;;;;5097490;28;20510;-69
2021/03/15 12:21:10;;;;;;;2.20;2.00;;;7.60;99.90;;;;;;5080911;28;20201;-70
2021/03/15 12:23:42;;;;;;;2.17;1.80;;;7.70;99.90;;;;;;5080650;28;20522;-70
2021/03/15 12:26:10;;;;;;;3.15;1.90;;;7.40;99.90;;;;;;5096493;28;20447;-72
2021/03/15 12:28:42;;;;;;;2.37;1.90;;;7.30;99.90;;;;;;5097289;28;20208;-70
2021/03/15 12:31:33;;;;;;;4.50;3.33;;;6.80;99.90;;;;;;5116495;28;20482;-70
2021/03/15 12:34:01;;;;;;;3.10;2.60;;;6.70;99.90;;;;;;5100753;28;20406;-70
2021/03/15 12:36:29;;;;;;;2.70;2.40;;;6.70;99.90;;;;;;5099178;28;20414;-71
2021/03/15 12:38:59;;;;;;;1.77;1.67;;;7.40;99.90;;;;;;5100445;28;20192;-69
2021/03/15 12:41:32;;;;;;;1.67;1.57;;;8.00;99.90;;;;;;5100385;28;20442;-70
2021/03/15 12:44:02;;;;;;;1.93;1.80;;;7.80;99.90;;;;;;5082045;28;20426;-70
2021/03/15 12:46:31;;;;;;;2.20;2.03;;;7.60;99.90;;;;;;5099039;28;20562;-70
2021/03/15 12:49:09;;;;;;;4.23;1.90;;;6.90;99.90;;;;;;5099844;28;20444;-70
2021/03/15 12:51:36;;;;;;;1.90;1.60;;;6.80;99.90;;;;;;5082902;28;20443;-70
2021/03/15 12:54:06;;;;;;;2.20;2.00;;;7.00;99.90;;;;;;5082208;28;20405;-72
2021/03/15 12:56:43;;;;;;;2.00;1.73;;;7.10;99.90;;;;;;5099608;28;20188;-70
2021/03/15 12:59:13;;;;;;;2.47;1.93;;;7.00;99.90;;;;;;5099795;28;20409;-69
2021/03/15 13:01:49;;;;;;;1.67;1.57;;;6.90;99.90;;;;;;5098446;28;20456;-69
2021/03/15 13:04:16;;;;;;;1.77;1.20;;;7.30;99.90;;;;;;5082726;28;20446;-72
2021/03/15 13:06:50;;;;;;;1.67;1.37;;;7.80;99.90;;;;;;5099487;28;20423;-69
2021/03/15 13:09:44;;;;;;;2.87;1.57;;;8.50;99.90;;;;;;5097115;28;20468;-70
2021/03/15 13:12:18;;;;;;;1.60;1.40;;;8.80;99.90;;;;;;5082031;28;20410;-69
2021/03/15 13:15:17;;;;;;;1.93;1.77;;;9.20;99.90;;;;;;5104106;28;20595;-69
2021/03/15 13:18:00;;;;;;;1.87;1.70;;;9.90;99.90;;;;;;5079949;28;20762;-70
2021/03/15 13:21:10;;;;;;;1.77;1.67;;;8.70;99.90;;;;;;5096695;28;20522;-69
2021/03/15 13:23:38;;;;;;;2.37;1.97;;;8.50;99.90;;;;;;5079092;28;20518;-70
2021/03/15 13:26:09;;;;;;;1.77;1.67;;;8.00;99.90;;;;;;5097643;28;20440;-71
2021/03/15 13:28:48;;;;;;;1.83;1.47;;;7.80;99.90;;;;;;5080914;28;20985;-69
2021/03/15 13:31:16;;;;;;;1.50;1.40;;;7.50;99.90;;;;;;5097294;28;20475;-72
2021/03/15 13:33:48;;;;;;;2.20;1.50;;;7.20;99.90;;;;;;5082051;28;20431;-72
2021/03/15 13:36:20;;;;;;;2.03;1.50;;;7.20;99.90;;;;;;5097839;28;20420;-72
2021/03/15 13:39:08;;;;;;;1.40;1.30;;;7.30;99.90;;;;;;5115089;28;20499;-70
2021/03/15 13:41:38;;;;;;;1.30;1.13;;;7.00;99.90;;;;;;5097324;28;20521;-70
2021/03/15 13:44:35;;;;;;;1.90;0.83;;;6.80;99.90;;;;;;5012323;28;20453;-71